sensor_id;sensor_type;location;lat;lon;timestamp;pressure;altitude;pressure_sealevel;temperature;humidity
65832;BME280;52593;42.648;23.332;2023-03-16T00:00:11;93679.78;;;0.99;100.00
65832;BME280;52593;42.648;23.332;2023-03-16T00:02:39;93692.50;;;1.04;100.00
65832;BME280;52593;42.648;23.332;2023-03-16T00:05:06;93683.78;;;1.03;100.00
65832;BME280;52593;42.648;23.332;2023-03-16T00:07:31;93688.09;;;1.04;100.00
65832;BME280;52593;42.648;23.332;2023-03-16T00:09:58;93685.91;;;1.00;100.00
65832;BME280;52593;42.648;23.332;2023-03-16T00:12:24;93702.91;;;1.05;100.00
65832;BME280;52593;42.648;23.332;2023-03-16T00:14:51;93704.41;;;1.08;100.00
65832;BME280;52593;42.648;23.332;2023-03-16T00:17:18;93701.56;;;1.01;100.00
65832;BME280;52593;42.648;23.332;2023-03-16T00:22:11;93707.00;;;0.90;100.00
65832;BME280;52593;42.648;23.332;2023-03-16T00:24:39;93696.22;;;0.83;100.00
65832;BME280;52593;42.648;23.332;2023-03-16T00:27:10;93704.28;;;0.82;100.00
65832;BME280;52593;42.648;23.332;2023-03-16T00:29:42;93698.47;;;0.78;100.00
65832;BME280;52593;42.648;23.332;2023-03-16T00:32:19;93712.31;;;0.80;100.00
65832;BME280;52593;42.648;23.332;2023-03-16T00:34:46;93705.09;;;0.82;100.00
65832;BME280;52593;42.648;23.332;2023-03-16T00:37:13;93699.06;;;0.72;100.00
65832;BME280;52593;42.648;23.332;2023-03-16T00:39:41;93710.03;;;0.67;100.00
65832;BME280;52593;42.648;23.332;2023-03-16T00:42:08;93713.50;;;0.58;100.00
65832;BME280;52593;42.648;23.332;2023-03-16T00:44:34;93703.25;;;0.55;100.00
65832;BME280;52593;42.648;23.332;2023-03-16T00:47:00;93703.53;;;0.52;100.00
65832;BME280;52593;42.648;23.332;2023-03-16T00:49:26;93718.50;;;0.51;100.00
65832;BME280;52593;42.648;23.332;2023-03-16T00:51:51;93717.84;;;0.49;100.00
65832;BME280;52593;42.648;23.332;2023-03-16T00:54:16;93719.47;;;0.50;100.00
65832;BME280;52593;42.648;23.332;2023-03-16T00:56:42;93701.91;;;0.51;100.00
65832;BME280;52593;42.648;23.332;2023-03-16T00:59:07;93709.09;;;0.49;100.00
65832;BME280;52593;42.648;23.332;2023-03-16T01:01:33;93717.69;;;0.51;100.00
65832;BME280;52593;42.648;23.332;2023-03-16T01:03:58;93719.31;;;0.52;100.00
65832;BME280;52593;42.648;23.332;2023-03-16T01:06:24;93705.78;;;0.47;100.00
65832;BME280;52593;42.648;23.332;2023-03-16T01:08:50;93709.50;;;0.44;100.00
65832;BME280;52593;42.648;23.332;2023-03-16T01:11:18;93716.31;;;0.47;100.00
65832;BME280;52593;42.648;23.332;2023-03-16T01:13:46;93718.13;;;0.46;100.00
65832;BME280;52593;42.648;23.332;2023-03-16T01:16:11;93705.81;;;0.37;100.00
65832;BME280;52593;42.648;23.332;2023-03-16T01:18:37;93719.66;;;0.39;100.00
65832;BME280;52593;42.648;23.332;2023-03-16T01:21:09;93721.59;;;0.37;100.00
65832;BME280;52593;42.648;23.332;2023-03-16T01:23:38;93719.41;;;0.32;100.00
65832;BME280;52593;42.648;23.332;2023-03-16T01:26:04;93722.88;;;0.23;100.00
65832;BME280;52593;42.648;23.332;2023-03-16T01:28:30;93719.00;;;0.17;100.00
65832;BME280;52593;42.648;23.332;2023-03-16T01:31:07;93727.56;;;0.20;100.00
65832;BME280;52593;42.648;23.332;2023-03-16T01:33:35;93728.00;;;0.15;100.00
65832;BME280;52593;42.648;23.332;2023-03-16T01:36:13;93729.28;;;0.11;100.00
65832;BME280;52593;42.648;23.332;2023-03-16T01:38:40;93722.75;;;0.05;100.00
65832;BME280;52593;42.648;23.332;2023-03-16T01:41:06;93717.50;;;0.05;100.00
65832;BME280;52593;42.648;23.332;2023-03-16T01:43:33;93721.09;;;0.04;100.00
65832;BME280;52593;42.648;23.332;2023-03-16T01:48:54;93730.25;;;0.00;100.00
65832;BME280;52593;42.648;23.332;2023-03-16T01:54:02;93731.75;;;0.03;100.00
65832;BME280;52593;42.648;23.332;2023-03-16T01:56:34;93727.88;;;0.07;100.00
65832;BME280;52593;42.648;23.332;2023-03-16T01:59:06;93742.44;;;0.11;100.00
65832;BME280;52593;42.648;23.332;2023-03-16T02:01:34;93738.81;;;0.12;100.00
65832;BME280;52593;42.648;23.332;2023-03-16T02:04:18;93743.78;;;0.15;100.00
65832;BME280;52593;42.648;23.332;2023-03-16T02:06:47;93740.91;;;0.08;100.00
65832;BME280;52593;42.648;23.332;2023-03-16T02:09:13;93742.56;;;0.09;100.00
65832;BME280;52593;42.648;23.332;2023-03-16T02:11:40;93750.72;;;0.16;100.00
65832;BME280;52593;42.648;23.332;2023-03-16T02:14:09;93745.19;;;0.09;100.00
65832;BME280;52593;42.648;23.332;2023-03-16T02:16:35;93749.19;;;0.13;100.00
65832;BME280;52593;42.648;23.332;2023-03-16T02:19:00;93763.19;;;0.14;100.00
65832;BME280;52593;42.648;23.332;2023-03-16T02:21:53;93765.69;;;0.15;100.00
65832;BME280;52593;42.648;23.332;2023-03-16T02:24:21;93758.22;;;0.11;100.00
65832;BME280;52593;42.648;23.332;2023-03-16T02:29:39;93779.94;;;0.03;100.00
65832;BME280;52593;42.648;23.332;2023-03-16T02:32:04;93777.31;;;-0.07;100.00
65832;BME280;52593;42.648;23.332;2023-03-16T02:34:30;93772.72;;;-0.14;100.00
65832;BME280;52593;42.648;23.332;2023-03-16T02:36:57;93781.31;;;-0.12;100.00
65832;BME280;52593;42.648;23.332;2023-03-16T02:39:23;93765.66;;;-0.14;100.00
65832;BME280;52593;42.648;23.332;2023-03-16T02:41:49;93767.19;;;-0.21;100.00
65832;BME280;52593;42.648;23.332;2023-03-16T02:44:25;93772.44;;;-0.11;100.00
65832;BME280;52593;42.648;23.332;2023-03-16T02:46:55;93783.66;;;-0.09;100.00
65832;BME280;52593;42.648;23.332;2023-03-16T02:51:52;93782.28;;;-0.13;100.00
65832;BME280;52593;42.648;23.332;2023-03-16T02:54:18;93792.94;;;-0.15;100.00
65832;BME280;52593;42.648;23.332;2023-03-16T02:56:43;93789.88;;;-0.20;100.00
65832;BME280;52593;42.648;23.332;2023-03-16T02:59:09;93791.97;;;-0.24;100.00
65832;BME280;52593;42.648;23.332;2023-03-16T03:01:36;93787.94;;;-0.28;100.00
65832;BME280;52593;42.648;23.332;2023-03-16T03:04:03;93803.97;;;-0.31;100.00
65832;BME280;52593;42.648;23.332;2023-03-16T03:06:28;93788.63;;;-0.36;100.00
65832;BME280;52593;42.648;23.332;2023-03-16T03:08:54;93790.44;;;-0.36;100.00
65832;BME280;52593;42.648;23.332;2023-03-16T03:11:20;93805.38;;;-0.37;100.00
65832;BME280;52593;42.648;23.332;2023-03-16T03:13:45;93805.78;;;-0.31;100.00
65832;BME280;52593;42.648;23.332;2023-03-16T03:16:11;93801.91;;;-0.37;100.00
65832;BME280;52593;42.648;23.332;2023-03-16T03:18:37;93816.72;;;-0.36;100.00
65832;BME280;52593;42.648;23.332;2023-03-16T03:21:02;93816.72;;;-0.36;100.00
65832;BME280;52593;42.648;23.332;2023-03-16T03:23:28;93808.53;;;-0.43;100.00
65832;BME280;52593;42.648;23.332;2023-03-16T03:25:57;93822.09;;;-0.38;100.00
65832;BME280;52593;42.648;23.332;2023-03-16T03:28:23;93817.38;;;-0.44;100.00
65832;BME280;52593;42.648;23.332;2023-03-16T03:30:48;93820.56;;;-0.40;100.00
65832;BME280;52593;42.648;23.332;2023-03-16T03:33:13;93808.25;;;-0.49;100.00
65832;BME280;52593;42.648;23.332;2023-03-16T03:35:39;93817.38;;;-0.44;100.00
65832;BME280;52593;42.648;23.332;2023-03-16T03:38:06;93827.22;;;-0.46;100.00
65832;BME280;52593;42.648;23.332;2023-03-16T03:40:32;93831.34;;;-0.53;100.00
65832;BME280;52593;42.648;23.332;2023-03-16T03:42:59;93834.66;;;-0.51;100.00
65832;BME280;52593;42.648;23.332;2023-03-16T03:45:24;93815.28;;;-0.60;100.00
65832;BME280;52593;42.648;23.332;2023-03-16T03:47:50;93828.56;;;-0.61;100.00
65832;BME280;52593;42.648;23.332;2023-03-16T03:50:15;93826.75;;;-0.61;100.00
65832;BME280;52593;42.648;23.332;2023-03-16T03:52:41;93851.94;;;-0.58;100.00
65832;BME280;52593;42.648;23.332;2023-03-16T03:55:07;93849.31;;;-0.58;100.00
65832;BME280;52593;42.648;23.332;2023-03-16T03:57:33;93851.34;;;-0.62;100.00
65832;BME280;52593;42.648;23.332;2023-03-16T03:59:58;93853.31;;;-0.54;100.00
65832;BME280;52593;42.648;23.332;2023-03-16T04:02:23;93864.16;;;-0.47;100.00
65832;BME280;52593;42.648;23.332;2023-03-16T04:04:49;93853.38;;;-0.44;100.00
65832;BME280;52593;42.648;23.332;2023-03-16T04:07:15;93864.00;;;-0.46;100.00
65832;BME280;52593;42.648;23.332;2023-03-16T04:09:40;93871.75;;;-0.44;100.00
65832;BME280;52593;42.648;23.332;2023-03-16T04:12:06;93860.25;;;-0.43;100.00
65832;BME280;52593;42.648;23.332;2023-03-16T04:14:32;93855.59;;;-0.40;100.00
65832;BME280;52593;42.648;23.332;2023-03-16T04:16:57;93857.50;;;-0.42;100.00
65832;BME280;52593;42.648;23.332;2023-03-16T04:19:23;93866.63;;;-0.46;100.00
65832;BME280;52593;42.648;23.332;2023-03-16T04:21:50;93863.00;;;-0.55;100.00
65832;BME280;52593;42.648;23.332;2023-03-16T04:24:16;93861.91;;;-0.52;100.00
65832;BME280;52593;42.648;23.332;2023-03-16T04:26:43;93874.34;;;-0.54;100.00
65832;BME280;52593;42.648;23.332;2023-03-16T04:29:14;93865.06;;;-0.58;100.00
65832;BME280;52593;42.648;23.332;2023-03-16T04:31:43;93890.69;;;-0.50;100.00
65832;BME280;52593;42.648;23.332;2023-03-16T04:34:09;93878.50;;;-0.51;100.00
65832;BME280;52593;42.648;23.332;2023-03-16T04:36:36;93877.84;;;-0.44;100.00
65832;BME280;52593;42.648;23.332;2023-03-16T04:39:02;93890.72;;;-0.41;100.00
65832;BME280;52593;42.648;23.332;2023-03-16T04:41:28;93891.81;;;-0.43;99.96
65832;BME280;52593;42.648;23.332;2023-03-16T04:43:54;93898.03;;;-0.44;99.92
65832;BME280;52593;42.648;23.332;2023-03-16T04:46:19;93882.22;;;-0.54;100.00
65832;BME280;52593;42.648;23.332;2023-03-16T04:48:45;93893.19;;;-0.49;99.56
65832;BME280;52593;42.648;23.332;2023-03-16T04:51:10;93897.47;;;-0.48;98.85
65832;BME280;52593;42.648;23.332;2023-03-16T04:53:35;93915.31;;;-0.51;99.83
65832;BME280;52593;42.648;23.332;2023-03-16T04:56:01;93915.59;;;-0.45;99.87
65832;BME280;52593;42.648;23.332;2023-03-16T04:58:28;93914.75;;;-0.55;99.80
65832;BME280;52593;42.648;23.332;2023-03-16T05:00:54;93917.25;;;-0.53;100.00
65832;BME280;52593;42.648;23.332;2023-03-16T05:03:20;93918.06;;;-0.53;100.00
65832;BME280;52593;42.648;23.332;2023-03-16T05:05:46;93918.59;;;-0.59;100.00
65832;BME280;52593;42.648;23.332;2023-03-16T05:08:11;93925.25;;;-0.55;100.00
65832;BME280;52593;42.648;23.332;2023-03-16T05:10:37;93936.19;;;-0.50;99.85
65832;BME280;52593;42.648;23.332;2023-03-16T05:13:04;93913.75;;;-0.54;100.00
65832;BME280;52593;42.648;23.332;2023-03-16T05:15:30;93911.97;;;-0.53;99.87
65832;BME280;52593;42.648;23.332;2023-03-16T05:17:55;93925.81;;;-0.51;100.00
65832;BME280;52593;42.648;23.332;2023-03-16T05:20:21;93931.75;;;-0.49;100.00
65832;BME280;52593;42.648;23.332;2023-03-16T05:22:47;93931.06;;;-0.51;100.00
65832;BME280;52593;42.648;23.332;2023-03-16T05:25:14;93929.31;;;-0.41;99.60
65832;BME280;52593;42.648;23.332;2023-03-16T05:27:43;93936.34;;;-0.42;99.19
65832;BME280;52593;42.648;23.332;2023-03-16T05:30:11;93929.31;;;-0.41;98.82
65832;BME280;52593;42.648;23.332;2023-03-16T05:32:37;93923.88;;;-0.49;98.60
65832;BME280;52593;42.648;23.332;2023-03-16T05:35:03;93951.00;;;-0.49;98.49
65832;BME280;52593;42.648;23.332;2023-03-16T05:37:29;93955.41;;;-0.49;99.34
65832;BME280;52593;42.648;23.332;2023-03-16T05:39:55;93955.41;;;-0.49;98.70
65832;BME280;52593;42.648;23.332;2023-03-16T05:42:21;93961.53;;;-0.49;98.86
65832;BME280;52593;42.648;23.332;2023-03-16T05:44:47;93959.84;;;-0.50;99.29
65832;BME280;52593;42.648;23.332;2023-03-16T05:47:13;93960.53;;;-0.48;99.23
65832;BME280;52593;42.648;23.332;2023-03-16T05:49:38;93967.31;;;-0.55;98.85
65832;BME280;52593;42.648;23.332;2023-03-16T05:52:04;93964.28;;;-0.50;100.00
65832;BME280;52593;42.648;23.332;2023-03-16T05:54:29;93972.28;;;-0.52;100.00
65832;BME280;52593;42.648;23.332;2023-03-16T05:56:54;93972.56;;;-0.55;100.00
65832;BME280;52593;42.648;23.332;2023-03-16T05:59:20;93973.78;;;-0.59;99.77
65832;BME280;52593;42.648;23.332;2023-03-16T06:01:45;93981.72;;;-0.70;100.00
65832;BME280;52593;42.648;23.332;2023-03-16T06:04:11;93977.19;;;-0.68;100.00
65832;BME280;52593;42.648;23.332;2023-03-16T06:06:36;93986.09;;;-0.60;100.00
65832;BME280;52593;42.648;23.332;2023-03-16T06:09:02;93990.22;;;-0.57;100.00
65832;BME280;52593;42.648;23.332;2023-03-16T06:11:27;93990.81;;;-0.53;100.00
65832;BME280;52593;42.648;23.332;2023-03-16T06:13:53;93991.94;;;-0.46;100.00
65832;BME280;52593;42.648;23.332;2023-03-16T06:16:22;93989.00;;;-0.53;100.00
65832;BME280;52593;42.648;23.332;2023-03-16T06:18:47;93989.19;;;-0.45;99.50
65832;BME280;52593;42.648;23.332;2023-03-16T06:21:12;93999.91;;;-0.37;99.77
65832;BME280;52593;42.648;23.332;2023-03-16T06:23:38;93992.22;;;-0.49;99.83
65832;BME280;52593;42.648;23.332;2023-03-16T06:26:03;94003.75;;;-0.41;100.00
65832;BME280;52593;42.648;23.332;2023-03-16T06:28:29;94002.19;;;-0.43;100.00
65832;BME280;52593;42.648;23.332;2023-03-16T06:30:56;94011.88;;;-0.44;99.99
65832;BME280;52593;42.648;23.332;2023-03-16T06:33:22;94015.22;;;-0.42;99.50
65832;BME280;52593;42.648;23.332;2023-03-16T06:35:48;94007.19;;;-0.40;98.99
65832;BME280;52593;42.648;23.332;2023-03-16T06:38:14;94026.34;;;-0.28;98.74
65832;BME280;52593;42.648;23.332;2023-03-16T06:40:40;94033.03;;;-0.24;99.11
65832;BME280;52593;42.648;23.332;2023-03-16T06:43:05;94034.41;;;-0.20;98.16
65832;BME280;52593;42.648;23.332;2023-03-16T06:45:32;94029.88;;;-0.18;97.19
65832;BME280;52593;42.648;23.332;2023-03-16T06:47:57;94037.75;;;-0.18;97.42
65832;BME280;52593;42.648;23.332;2023-03-16T06:50:23;94042.88;;;-0.16;97.12
65832;BME280;52593;42.648;23.332;2023-03-16T06:52:48;94036.38;;;-0.12;96.62
65832;BME280;52593;42.648;23.332;2023-03-16T06:55:13;94039.28;;;-0.15;96.20
65832;BME280;52593;42.648;23.332;2023-03-16T06:57:39;94041.13;;;-0.06;96.75
65832;BME280;52593;42.648;23.332;2023-03-16T07:00:07;94059.78;;;-0.09;95.18
65832;BME280;52593;42.648;23.332;2023-03-16T07:02:33;94053.63;;;0.02;94.94
65832;BME280;52593;42.648;23.332;2023-03-16T07:05:00;94066.78;;;0.02;94.42
65832;BME280;52593;42.648;23.332;2023-03-16T07:07:26;94067.75;;;0.01;93.93
65832;BME280;52593;42.648;23.332;2023-03-16T07:09:51;94066.66;;;0.03;94.59
65832;BME280;52593;42.648;23.332;2023-03-16T07:12:17;94083.25;;;0.04;94.04
65832;BME280;52593;42.648;23.332;2023-03-16T07:14:42;94073.56;;;0.04;93.95
65832;BME280;52593;42.648;23.332;2023-03-16T07:17:08;94082.31;;;0.05;93.02
65832;BME280;52593;42.648;23.332;2023-03-16T07:19:33;94090.13;;;-0.05;93.89
65832;BME280;52593;42.648;23.332;2023-03-16T07:21:59;94083.84;;;-0.14;93.67
65832;BME280;52593;42.648;23.332;2023-03-16T07:24:26;94090.66;;;-0.11;94.61
65832;BME280;52593;42.648;23.332;2023-03-16T07:26:52;94091.09;;;-0.06;94.54
65832;BME280;52593;42.648;23.332;2023-03-16T07:29:17;94093.78;;;0.04;95.37
65832;BME280;52593;42.648;23.332;2023-03-16T07:31:43;94083.56;;;0.10;96.22
65832;BME280;52593;42.648;23.332;2023-03-16T07:34:08;94092.31;;;0.11;97.14
65832;BME280;52593;42.648;23.332;2023-03-16T07:36:34;94095.38;;;0.16;96.65
65832;BME280;52593;42.648;23.332;2023-03-16T07:38:59;94093.88;;;0.23;95.64
65832;BME280;52593;42.648;23.332;2023-03-16T07:41:25;94093.00;;;0.13;94.36
65832;BME280;52593;42.648;23.332;2023-03-16T07:43:51;94092.22;;;0.32;94.11
65832;BME280;52593;42.648;23.332;2023-03-16T07:46:17;94094.31;;;0.28;92.04
65832;BME280;52593;42.648;23.332;2023-03-16T07:48:43;94091.41;;;0.31;91.84
65832;BME280;52593;42.648;23.332;2023-03-16T07:51:10;94091.16;;;0.34;92.65
65832;BME280;52593;42.648;23.332;2023-03-16T07:53:37;94112.94;;;0.46;91.18
65832;BME280;52593;42.648;23.332;2023-03-16T07:56:03;94108.34;;;0.39;91.74
65832;BME280;52593;42.648;23.332;2023-03-16T07:58:28;94097.81;;;0.39;90.99
65832;BME280;52593;42.648;23.332;2023-03-16T08:00:58;94111.41;;;0.44;91.18
65832;BME280;52593;42.648;23.332;2023-03-16T08:03:24;94108.09;;;0.42;90.24
65832;BME280;52593;42.648;23.332;2023-03-16T08:05:51;94103.66;;;0.42;90.52
65832;BME280;52593;42.648;23.332;2023-03-16T08:08:16;94106.63;;;0.59;90.87
65832;BME280;52593;42.648;23.332;2023-03-16T08:10:42;94118.28;;;0.66;91.95
65832;BME280;52593;42.648;23.332;2023-03-16T08:13:08;94108.13;;;0.61;91.35
65832;BME280;52593;42.648;23.332;2023-03-16T08:15:33;94111.25;;;0.86;90.87
65832;BME280;52593;42.648;23.332;2023-03-16T08:18:00;94118.56;;;0.73;90.53
65832;BME280;52593;42.648;23.332;2023-03-16T08:20:28;94123.31;;;0.79;89.81
65832;BME280;52593;42.648;23.332;2023-03-16T08:22:54;94113.84;;;0.66;90.76
65832;BME280;52593;42.648;23.332;2023-03-16T08:25:19;94119.78;;;0.59;90.39
65832;BME280;52593;42.648;23.332;2023-03-16T08:27:45;94122.41;;;0.59;89.60
65832;BME280;52593;42.648;23.332;2023-03-16T08:30:12;94129.09;;;0.73;90.34
65832;BME280;52593;42.648;23.332;2023-03-16T08:32:38;94132.22;;;0.57;89.06
65832;BME280;52593;42.648;23.332;2023-03-16T08:35:10;94133.69;;;0.70;90.86
65832;BME280;52593;42.648;23.332;2023-03-16T08:37:37;94143.22;;;0.71;90.75
65832;BME280;52593;42.648;23.332;2023-03-16T08:40:03;94126.09;;;0.87;88.93
65832;BME280;52593;42.648;23.332;2023-03-16T08:42:30;94145.66;;;0.94;88.51
65832;BME280;52593;42.648;23.332;2023-03-16T08:44:56;94139.44;;;1.05;89.44
65832;BME280;52593;42.648;23.332;2023-03-16T08:47:24;94134.84;;;1.07;87.12
65832;BME280;52593;42.648;23.332;2023-03-16T08:49:50;94133.91;;;1.08;86.40
65832;BME280;52593;42.648;23.332;2023-03-16T08:52:16;94134.88;;;1.17;85.60
65832;BME280;52593;42.648;23.332;2023-03-16T08:54:41;94148.63;;;1.20;85.47
65832;BME280;52593;42.648;23.332;2023-03-16T08:57:08;94145.44;;;1.27;85.11
65832;BME280;52593;42.648;23.332;2023-03-16T08:59:35;94153.78;;;1.41;86.34
65832;BME280;52593;42.648;23.332;2023-03-16T09:02:00;94155.97;;;1.27;83.96
65832;BME280;52593;42.648;23.332;2023-03-16T09:04:26;94155.16;;;1.36;86.10
65832;BME280;52593;42.648;23.332;2023-03-16T09:06:52;94151.97;;;1.32;84.39
65832;BME280;52593;42.648;23.332;2023-03-16T09:09:18;94152.09;;;1.40;85.18
65832;BME280;52593;42.648;23.332;2023-03-16T09:11:43;94145.16;;;1.30;84.71
65832;BME280;52593;42.648;23.332;2023-03-16T09:14:09;94159.31;;;1.38;83.55
65832;BME280;52593;42.648;23.332;2023-03-16T09:16:38;94153.63;;;1.43;86.19
65832;BME280;52593;42.648;23.332;2023-03-16T09:19:04;94169.06;;;1.38;84.51
65832;BME280;52593;42.648;23.332;2023-03-16T09:21:30;94160.56;;;1.24;83.46
65832;BME280;52593;42.648;23.332;2023-03-16T09:23:56;94172.59;;;1.17;82.90
65832;BME280;52593;42.648;23.332;2023-03-16T09:26:21;94170.78;;;1.18;83.53
65832;BME280;52593;42.648;23.332;2023-03-16T09:28:47;94181.47;;;1.06;83.83
65832;BME280;52593;42.648;23.332;2023-03-16T09:31:16;94172.00;;;1.04;84.83
65832;BME280;52593;42.648;23.332;2023-03-16T09:33:42;94165.38;;;1.10;85.76
65832;BME280;52593;42.648;23.332;2023-03-16T09:36:08;94166.91;;;1.12;83.83
65832;BME280;52593;42.648;23.332;2023-03-16T09:38:35;94162.19;;;1.16;84.79
65832;BME280;52593;42.648;23.332;2023-03-16T09:41:06;94164.56;;;1.19;83.57
65832;BME280;52593;42.648;23.332;2023-03-16T09:43:38;94170.69;;;1.29;84.24
65832;BME280;52593;42.648;23.332;2023-03-16T09:48:48;94177.88;;;1.17;83.59
65832;BME280;52593;42.648;23.332;2023-03-16T09:52:11;94179.28;;;1.31;84.29
65832;BME280;52593;42.648;23.332;2023-03-16T09:56:44;94190.06;;;1.09;84.35
65832;BME280;52593;42.648;23.332;2023-03-16T09:59:12;94170.06;;;0.96;85.48
65832;BME280;52593;42.648;23.332;2023-03-16T10:02:04;94179.50;;;0.99;86.29
65832;BME280;52593;42.648;23.332;2023-03-16T10:04:47;94190.38;;;1.15;88.68
65832;BME280;52593;42.648;23.332;2023-03-16T10:07:28;94180.09;;;1.12;86.69
65832;BME280;52593;42.648;23.332;2023-03-16T10:12:38;94185.78;;;1.27;88.13
65832;BME280;52593;42.648;23.332;2023-03-16T10:15:09;94191.38;;;1.34;88.02
65832;BME280;52593;42.648;23.332;2023-03-16T10:17:45;94183.88;;;1.29;87.12
65832;BME280;52593;42.648;23.332;2023-03-16T10:20:18;94184.41;;;1.23;85.61
65832;BME280;52593;42.648;23.332;2023-03-16T10:22:46;94174.28;;;1.18;86.78
65832;BME280;52593;42.648;23.332;2023-03-16T10:25:28;94186.75;;;1.16;87.14
65832;BME280;52593;42.648;23.332;2023-03-16T10:27:55;94176.66;;;1.21;86.05
65832;BME280;52593;42.648;23.332;2023-03-16T10:30:23;94192.75;;;1.28;87.38
65832;BME280;52593;42.648;23.332;2023-03-16T10:32:49;94180.78;;;1.24;87.28
65832;BME280;52593;42.648;23.332;2023-03-16T10:35:45;94171.56;;;1.39;87.66
65832;BME280;52593;42.648;23.332;2023-03-16T10:38:27;94180.97;;;1.42;87.31
65832;BME280;52593;42.648;23.332;2023-03-16T10:40:53;94170.88;;;1.47;87.32
65832;BME280;52593;42.648;23.332;2023-03-16T10:43:19;94172.94;;;1.53;86.69
65832;BME280;52593;42.648;23.332;2023-03-16T10:45:45;94169.59;;;1.41;85.94
65832;BME280;52593;42.648;23.332;2023-03-16T10:48:19;94179.03;;;1.44;86.45
65832;BME280;52593;42.648;23.332;2023-03-16T10:50:50;94185.28;;;1.53;86.98
65832;BME280;52593;42.648;23.332;2023-03-16T10:53:27;94184.03;;;1.57;86.39
65832;BME280;52593;42.648;23.332;2023-03-16T10:56:07;94187.78;;;1.45;84.33
65832;BME280;52593;42.648;23.332;2023-03-16T10:58:39;94178.09;;;1.55;82.49
65832;BME280;52593;42.648;23.332;2023-03-16T11:01:27;94181.66;;;1.64;84.06
65832;BME280;52593;42.648;23.332;2023-03-16T11:03:54;94186.13;;;1.63;80.38
65832;BME280;52593;42.648;23.332;2023-03-16T11:06:26;94186.53;;;1.58;80.17
65832;BME280;52593;42.648;23.332;2023-03-16T11:09:23;94192.94;;;1.66;79.90
65832;BME280;52593;42.648;23.332;2023-03-16T11:11:48;94181.84;;;1.72;80.58
65832;BME280;52593;42.648;23.332;2023-03-16T11:14:14;94192.09;;;1.75;79.57
65832;BME280;52593;42.648;23.332;2023-03-16T11:17:03;94181.69;;;1.73;78.76
65832;BME280;52593;42.648;23.332;2023-03-16T11:19:38;94186.25;;;1.71;78.42
65832;BME280;52593;42.648;23.332;2023-03-16T11:22:12;94186.69;;;1.57;78.93
65832;BME280;52593;42.648;23.332;2023-03-16T11:27:35;94190.13;;;1.48;80.02
65832;BME280;52593;42.648;23.332;2023-03-16T11:32:36;94201.50;;;1.48;79.26
65832;BME280;52593;42.648;23.332;2023-03-16T11:35:11;94191.94;;;1.47;80.12
65832;BME280;52593;42.648;23.332;2023-03-16T11:45:32;94188.47;;;1.47;79.09
65832;BME280;52593;42.648;23.332;2023-03-16T11:48:21;94198.06;;;1.48;79.73
65832;BME280;52593;42.648;23.332;2023-03-16T11:51:04;94193.72;;;1.47;79.93
65832;BME280;52593;42.648;23.332;2023-03-16T11:56:45;94196.09;;;1.50;81.14
65832;BME280;52593;42.648;23.332;2023-03-16T12:05:22;94198.72;;;1.50;80.77
65832;BME280;52593;42.648;23.332;2023-03-16T12:08:03;94195.56;;;1.46;81.40
65832;BME280;52593;42.648;23.332;2023-03-16T12:10:58;94208.31;;;1.41;80.02
65832;BME280;52593;42.648;23.332;2023-03-16T12:16:09;94214.78;;;1.27;80.87
65832;BME280;52593;42.648;23.332;2023-03-16T12:18:44;94212.69;;;1.21;81.44
65832;BME280;52593;42.648;23.332;2023-03-16T12:23:48;94202.00;;;1.13;81.80
65832;BME280;52593;42.648;23.332;2023-03-16T12:26:14;94206.59;;;1.20;82.49
65832;BME280;52593;42.648;23.332;2023-03-16T12:28:41;94205.06;;;1.18;81.30
65832;BME280;52593;42.648;23.332;2023-03-16T12:31:12;94226.03;;;1.29;81.98
65832;BME280;52593;42.648;23.332;2023-03-16T12:34:03;94228.41;;;1.32;81.20
65832;BME280;52593;42.648;23.332;2023-03-16T12:36:44;94234.22;;;1.26;81.54
65832;BME280;52593;42.648;23.332;2023-03-16T12:49:52;94234.06;;;0.87;83.64
65832;BME280;52593;42.648;23.332;2023-03-16T12:52:18;94235.47;;;0.81;84.82
65832;BME280;52593;42.648;23.332;2023-03-16T12:54:55;94241.00;;;0.78;86.15
65832;BME280;52593;42.648;23.332;2023-03-16T12:57:30;94238.78;;;0.83;87.10
65832;BME280;52593;42.648;23.332;2023-03-16T12:59:57;94250.88;;;0.86;87.82
65832;BME280;52593;42.648;23.332;2023-03-16T13:02:28;94250.53;;;0.79;88.80
65832;BME280;52593;42.648;23.332;2023-03-16T13:05:14;94254.59;;;0.83;89.66
65832;BME280;52593;42.648;23.332;2023-03-16T13:07:48;94247.19;;;0.67;89.44
65832;BME280;52593;42.648;23.332;2023-03-16T13:10:18;94255.09;;;0.67;90.65
65832;BME280;52593;42.648;23.332;2023-03-16T13:12:45;94252.91;;;0.51;92.30
65832;BME280;52593;42.648;23.332;2023-03-16T13:17:46;94264.22;;;0.42;94.76
65832;BME280;52593;42.648;23.332;2023-03-16T13:22:46;94267.41;;;0.46;95.49
65832;BME280;52593;42.648;23.332;2023-03-16T13:25:34;94265.94;;;0.53;94.56
65832;BME280;52593;42.648;23.332;2023-03-16T13:28:04;94272.03;;;0.53;95.10
65832;BME280;52593;42.648;23.332;2023-03-16T13:30:33;94271.72;;;0.68;95.12
65832;BME280;52593;42.648;23.332;2023-03-16T13:33:16;94267.72;;;0.74;93.27
65832;BME280;52593;42.648;23.332;2023-03-16T13:35:44;94269.09;;;0.78;93.46
65832;BME280;52593;42.648;23.332;2023-03-16T13:38:14;94258.16;;;0.73;92.43
65832;BME280;52593;42.648;23.332;2023-03-16T13:40:48;94266.84;;;0.94;92.68
65832;BME280;52593;42.648;23.332;2023-03-16T13:43:15;94275.44;;;0.96;91.72
65832;BME280;52593;42.648;23.332;2023-03-16T13:45:42;94260.88;;;0.92;91.35
65832;BME280;52593;42.648;23.332;2023-03-16T13:48:14;94268.84;;;0.81;91.08
65832;BME280;52593;42.648;23.332;2023-03-16T13:50:40;94286.97;;;0.95;91.71
65832;BME280;52593;42.648;23.332;2023-03-16T13:53:30;94287.81;;;1.05;91.84
65832;BME280;52593;42.648;23.332;2023-03-16T13:55:58;94275.91;;;1.01;91.25
65832;BME280;52593;42.648;23.332;2023-03-16T13:58:30;94278.16;;;1.16;92.00
65832;BME280;52593;42.648;23.332;2023-03-16T14:00:59;94283.97;;;1.19;91.26
65832;BME280;52593;42.648;23.332;2023-03-16T14:03:33;94279.09;;;1.05;91.61